createdAt,value
2023-03-25T00:02:12.888Z,16.38
2023-03-25T00:04:39.345Z,16.36
2023-03-25T00:07:05.757Z,16.36
2023-03-25T00:09:32.200Z,16.36
2023-03-25T00:11:58.526Z,16.36
2023-03-25T00:14:24.889Z,16.36
2023-03-25T00:16:51.314Z,16.37
2023-03-25T00:19:18.018Z,16.35
2023-03-25T00:21:44.357Z,16.34
2023-03-25T00:24:10.768Z,16.34
2023-03-25T00:26:37.205Z,16.34
2023-03-25T00:29:03.832Z,16.33
2023-03-25T00:31:30.266Z,16.34
2023-03-25T00:33:56.635Z,16.33
2023-03-25T00:36:23.251Z,16.36
2023-03-25T00:38:49.974Z,16.33
2023-03-25T00:41:16.303Z,16.34
2023-03-25T00:43:42.676Z,16.36
2023-03-25T00:46:09.223Z,16.35
2023-03-25T00:48:35.945Z,16.33
2023-03-25T00:51:02.580Z,16.33
2023-03-25T00:53:28.902Z,16.32
2023-03-25T00:55:55.477Z,16.34
2023-03-25T00:58:21.812Z,16.34
2023-03-25T01:00:48.165Z,16.34
2023-03-25T01:03:14.554Z,16.33
2023-03-25T01:05:40.981Z,16.35
2023-03-25T01:08:07.318Z,16.33
2023-03-25T01:10:33.763Z,16.33
2023-03-25T01:13:00.270Z,16.31
2023-03-25T01:15:26.732Z,16.31
2023-03-25T01:17:53.221Z,16.31
2023-03-25T01:20:19.678Z,16.33
2023-03-25T01:22:46.366Z,16.34
2023-03-25T01:25:12.723Z,16.33
2023-03-25T01:27:39.494Z,16.35
2023-03-25T01:30:06.008Z,16.31
2023-03-25T01:32:32.422Z,16.33
2023-03-25T01:34:59.446Z,16.33
2023-03-25T01:37:25.806Z,16.33
2023-03-25T01:39:52.149Z,16.31
2023-03-25T01:42:18.506Z,16.36
2023-03-25T01:44:45.012Z,16.34
2023-03-25T01:47:11.566Z,16.39
2023-03-25T01:49:37.965Z,16.31
2023-03-25T01:52:04.746Z,16.33
2023-03-25T01:54:31.635Z,16.32
2023-03-25T01:56:58.480Z,16.35
2023-03-25T01:59:24.965Z,16.40
2023-03-25T02:01:51.324Z,16.33
2023-03-25T02:04:19.419Z,16.35
2023-03-25T02:06:46.180Z,16.36
2023-03-25T02:09:12.932Z,16.38
2023-03-25T02:11:39.562Z,16.31
2023-03-25T02:14:05.953Z,16.32
2023-03-25T02:16:32.505Z,16.34
2023-03-25T02:18:58.936Z,16.33
2023-03-25T02:21:25.386Z,16.32
2023-03-25T02:23:51.738Z,16.30
2023-03-25T02:26:18.159Z,16.31
2023-03-25T02:28:45.141Z,16.38
2023-03-25T02:31:11.563Z,16.29
2023-03-25T02:33:37.953Z,16.33
2023-03-25T02:36:04.613Z,16.34
2023-03-25T02:38:30.974Z,16.35
2023-03-25T02:40:57.423Z,16.34
2023-03-25T02:43:24.192Z,16.35
2023-03-25T02:45:50.616Z,16.37
2023-03-25T02:48:17.554Z,16.37
2023-03-25T02:50:43.978Z,16.33
2023-03-25T02:53:10.536Z,16.35
2023-03-25T02:55:36.801Z,16.39
2023-03-25T02:58:03.318Z,16.32
2023-03-25T03:00:29.646Z,16.36
2023-03-25T03:02:56.026Z,16.37
2023-03-25T03:05:22.464Z,16.33
2023-03-25T03:07:49.325Z,16.32
2023-03-25T03:10:15.680Z,16.35
2023-03-25T03:12:42.086Z,16.40
2023-03-25T03:15:08.408Z,16.28
2023-03-25T03:17:34.813Z,16.33
2023-03-25T03:20:01.305Z,16.33
2023-03-25T03:22:28.499Z,16.32
2023-03-25T03:24:54.858Z,16.38
2023-03-25T03:27:21.498Z,16.32
2023-03-25T03:29:47.837Z,16.31
2023-03-25T03:32:14.173Z,16.32
2023-03-25T03:34:40.673Z,16.37
2023-03-25T03:37:07.085Z,16.39
2023-03-25T03:39:33.449Z,16.35
2023-03-25T03:42:00.231Z,16.34
2023-03-25T03:44:27.374Z,16.39
2023-03-25T03:46:53.676Z,16.35
2023-03-25T03:49:20.457Z,16.37
2023-03-25T03:51:47.151Z,16.43
2023-03-25T03:54:13.620Z,16.42
2023-03-25T03:56:40.968Z,16.41
2023-03-25T03:59:07.372Z,16.40
2023-03-25T04:01:34.050Z,16.38
2023-03-25T04:04:01.158Z,16.39
2023-03-25T04:06:27.529Z,16.32
2023-03-25T04:08:54.036Z,16.31
2023-03-25T04:11:20.501Z,16.40
2023-03-25T04:13:47.818Z,16.39
2023-03-25T04:16:14.214Z,16.40
2023-03-25T04:18:40.841Z,16.31
2023-03-25T04:21:07.157Z,16.34
2023-03-25T04:23:33.671Z,16.32
2023-03-25T04:26:00.049Z,16.35
2023-03-25T04:28:26.459Z,16.37
2023-03-25T04:30:53.264Z,16.37
2023-03-25T04:33:19.585Z,16.34
2023-03-25T04:35:46.233Z,16.33
2023-03-25T04:38:13.363Z,16.35
2023-03-25T04:40:39.708Z,16.37
2023-03-25T04:43:06.186Z,16.39
2023-03-25T04:45:33.089Z,16.37
2023-03-25T04:47:59.589Z,16.35
2023-03-25T04:50:26.090Z,16.39
2023-03-25T04:52:52.466Z,16.39
2023-03-25T04:55:19.711Z,16.39
2023-03-25T04:57:46.129Z,16.31
2023-03-25T05:00:12.554Z,16.39
2023-03-25T05:02:38.907Z,16.36
2023-03-25T05:05:05.312Z,16.37
2023-03-25T05:07:31.791Z,16.39
2023-03-25T05:09:59.006Z,16.31
2023-03-25T05:12:25.504Z,16.36
2023-03-25T05:14:52.053Z,16.37
2023-03-25T05:17:18.444Z,16.37
2023-03-25T05:19:45.454Z,16.37
2023-03-25T05:22:12.437Z,16.39
2023-03-25T05:24:39.106Z,16.39
2023-03-25T05:27:05.607Z,16.35
2023-03-25T05:29:32.626Z,16.37
2023-03-25T05:31:59.511Z,16.36
2023-03-25T05:34:26.171Z,16.37
2023-03-25T05:36:52.526Z,16.33
2023-03-25T05:39:19.033Z,16.35
2023-03-25T05:41:46.046Z,16.38
2023-03-25T05:44:12.520Z,16.35
2023-03-25T05:46:39.573Z,16.36
2023-03-25T05:49:05.938Z,16.30
2023-03-25T05:51:32.320Z,16.36
2023-03-25T05:53:58.957Z,16.33
2023-03-25T05:56:25.563Z,16.29
2023-03-25T05:58:51.883Z,16.28
2023-03-25T06:01:31.845Z,16.21
2023-03-25T06:04:00.032Z,16.25
2023-03-25T06:06:27.266Z,16.26
2023-03-25T06:08:53.608Z,16.26
2023-03-25T06:11:20.026Z,16.22
2023-03-25T06:13:46.446Z,16.24
2023-03-25T06:16:12.851Z,16.35
2023-03-25T06:18:39.245Z,16.28
2023-03-25T06:21:05.706Z,16.35
2023-03-25T06:23:32.113Z,16.32
2023-03-25T06:25:58.629Z,16.28
2023-03-25T06:28:25.560Z,16.29
2023-03-25T06:30:52.095Z,16.28
2023-03-25T06:33:43.047Z,16.28
2023-03-25T06:36:05.736Z,16.23
2023-03-25T06:38:32.521Z,16.27
2023-03-25T06:40:59.646Z,16.28
2023-03-25T06:43:26.081Z,16.22
2023-03-25T06:45:52.850Z,16.23
2023-03-25T06:48:19.824Z,16.25
2023-03-25T06:50:46.248Z,16.27
2023-03-25T06:53:13.273Z,16.29
2023-03-25T06:55:39.714Z,16.29
2023-03-25T06:58:06.169Z,16.28
2023-03-25T07:00:32.499Z,16.26
2023-03-25T07:02:58.882Z,16.28
2023-03-25T07:05:25.434Z,16.20
2023-03-25T07:07:52.040Z,16.26
2023-03-25T07:10:18.552Z,16.31
2023-03-25T07:12:44.931Z,16.28
2023-03-25T07:15:11.346Z,16.24
2023-03-25T07:17:37.732Z,16.24
2023-03-25T07:20:04.159Z,16.25
2023-03-25T07:22:31.211Z,16.26
2023-03-25T07:24:57.935Z,16.27
2023-03-25T07:27:24.220Z,16.22
2023-03-25T07:29:50.666Z,16.19
2023-03-25T07:32:16.974Z,16.24
2023-03-25T07:34:43.846Z,16.25
2023-03-25T07:37:10.287Z,16.23
2023-03-25T07:39:36.920Z,16.24
2023-03-25T07:42:03.273Z,16.24
2023-03-25T07:44:30.331Z,16.17
2023-03-25T07:46:57.337Z,16.22
2023-03-25T07:49:24.318Z,16.24
2023-03-25T07:51:50.640Z,16.25
2023-03-25T07:54:17.137Z,16.25
2023-03-25T07:56:43.676Z,16.19
2023-03-25T07:59:10.087Z,16.23
2023-03-25T08:01:37.096Z,16.19
2023-03-25T08:04:03.495Z,16.14
2023-03-25T08:06:30.008Z,16.18
2023-03-25T08:08:56.521Z,16.21
2023-03-25T08:11:23.206Z,16.22
2023-03-25T08:13:49.458Z,16.19
2023-03-25T08:16:15.880Z,16.18
2023-03-25T08:18:42.509Z,16.06
2023-03-25T08:21:08.972Z,15.99
2023-03-25T08:23:35.279Z,15.92
2023-03-25T08:26:01.633Z,15.83
2023-03-25T08:28:28.096Z,16.05
2023-03-25T08:30:54.440Z,15.98
2023-03-25T08:33:20.954Z,15.86
2023-03-25T08:35:47.476Z,15.94
2023-03-25T08:38:13.861Z,15.93
2023-03-25T08:40:40.213Z,16.00
2023-03-25T08:43:06.869Z,15.88
2023-03-25T08:45:33.254Z,15.85
2023-03-25T08:47:59.845Z,15.76
2023-03-25T08:50:26.348Z,15.82
2023-03-25T08:52:53.289Z,15.85
2023-03-25T08:55:19.727Z,15.82
2023-03-25T08:57:46.037Z,15.85
2023-03-25T09:00:12.415Z,15.83
2023-03-25T09:02:38.761Z,15.85
2023-03-25T09:05:05.189Z,15.79
2023-03-25T09:07:31.575Z,15.86
2023-03-25T09:09:57.900Z,15.89
2023-03-25T09:12:24.553Z,15.86
2023-03-25T09:14:51.034Z,15.88
2023-03-25T09:17:17.371Z,15.80
2023-03-25T09:19:43.734Z,15.84
2023-03-25T09:22:10.064Z,15.93
2023-03-25T09:24:36.469Z,15.93
2023-03-25T09:27:03.016Z,15.94
2023-03-25T09:29:29.324Z,15.98
2023-03-25T09:31:55.782Z,16.06
2023-03-25T09:34:22.215Z,16.02
2023-03-25T09:36:48.695Z,15.94
2023-03-25T09:39:15.032Z,15.93
2023-03-25T09:41:41.765Z,15.93
2023-03-25T09:44:08.178Z,15.87
2023-03-25T09:46:35.011Z,15.93
2023-03-25T09:49:01.415Z,15.93
2023-03-25T09:51:27.838Z,15.97
2023-03-25T09:53:54.236Z,15.99
2023-03-25T09:56:20.600Z,16.09
2023-03-25T09:58:46.988Z,16.12
2023-03-25T10:01:13.520Z,16.15
2023-03-25T10:03:40.037Z,16.10
2023-03-25T10:06:06.511Z,16.04
2023-03-25T10:08:33.001Z,16.06
2023-03-25T10:10:59.311Z,16.02
2023-03-25T10:13:25.645Z,16.13
2023-03-25T10:15:52.300Z,16.13
2023-03-25T10:18:18.790Z,16.22
2023-03-25T10:20:45.288Z,16.21
2023-03-25T10:23:11.919Z,16.18
2023-03-25T10:25:38.299Z,16.19
2023-03-25T10:28:04.630Z,16.12
2023-03-25T10:30:30.961Z,16.17
2023-03-25T10:32:57.528Z,16.09
2023-03-25T10:35:24.064Z,16.12
2023-03-25T10:37:50.454Z,16.13
2023-03-25T10:40:16.907Z,16.18
2023-03-25T10:42:43.812Z,16.19
2023-03-25T10:45:10.335Z,16.19
2023-03-25T10:47:37.118Z,16.17
2023-03-25T10:50:03.591Z,16.23
2023-03-25T10:52:29.967Z,16.25
2023-03-25T10:54:56.427Z,16.23
2023-03-25T10:57:22.859Z,16.14
2023-03-25T10:59:49.409Z,16.21
2023-03-25T11:02:15.810Z,16.21
2023-03-25T11:04:42.457Z,16.26
2023-03-25T11:07:09.000Z,16.28
2023-03-25T11:09:35.551Z,16.25
2023-03-25T11:12:01.884Z,16.23
2023-03-25T11:14:28.436Z,16.21
2023-03-25T11:22:36.818Z,16.00
2023-03-25T11:25:03.200Z,15.91
2023-03-25T11:30:19.776Z,16.12
2023-03-25T11:32:46.193Z,16.07
2023-03-25T11:37:57.482Z,16.02
2023-03-25T11:40:24.918Z,16.00
2023-03-25T11:42:51.250Z,15.91
2023-03-25T11:45:17.637Z,15.93
2023-03-25T11:47:44.462Z,15.86
2023-03-25T11:50:10.848Z,15.90
2023-03-25T11:52:37.258Z,15.93
2023-03-25T11:55:03.632Z,15.97
2023-03-25T11:57:32.190Z,15.91
2023-03-25T11:59:59.063Z,15.96
2023-03-25T12:02:25.557Z,15.87
2023-03-25T12:04:51.947Z,15.90
2023-03-25T12:07:18.411Z,15.81
2023-03-25T12:09:44.740Z,16.03
2023-03-25T12:12:11.502Z,15.98
2023-03-25T12:14:37.837Z,16.09
2023-03-25T12:17:04.295Z,16.15
2023-03-25T12:19:30.795Z,16.25
2023-03-25T12:21:57.284Z,16.23
2023-03-25T12:24:23.796Z,16.25
2023-03-25T12:26:50.269Z,16.18
2023-03-25T12:29:16.874Z,16.16
2023-03-25T12:31:43.331Z,16.19
2023-03-25T12:34:09.852Z,16.16
2023-03-25T12:36:36.335Z,16.20
2023-03-25T12:39:03.387Z,16.21
2023-03-25T12:41:29.867Z,16.18
2023-03-25T12:43:56.150Z,16.28
2023-03-25T12:46:22.782Z,16.32
2023-03-25T12:48:49.155Z,16.19
2023-03-25T12:51:16.007Z,16.28
2023-03-25T12:53:42.307Z,16.20
2023-03-25T12:56:10.748Z,16.16
2023-03-25T12:58:38.083Z,16.18
2023-03-25T13:01:04.520Z,16.07
2023-03-25T13:03:32.045Z,16.06
2023-03-25T13:05:58.659Z,16.10
2023-03-25T13:08:25.191Z,16.12
2023-03-25T13:10:52.011Z,16.13
2023-03-25T13:13:18.521Z,16.12
2023-03-25T13:15:45.042Z,16.19
2023-03-25T13:18:11.425Z,16.22
2023-03-25T13:20:38.083Z,16.23
2023-03-25T13:23:04.581Z,16.23
2023-03-25T13:25:31.134Z,16.28
2023-03-25T13:27:57.546Z,16.27
2023-03-25T13:30:23.939Z,16.31
2023-03-25T13:32:50.456Z,16.31
2023-03-25T13:35:16.947Z,16.33
2023-03-25T13:37:43.321Z,16.34
2023-03-25T13:40:09.692Z,16.37
2023-03-25T13:42:36.127Z,16.39
2023-03-25T13:45:03.275Z,16.38
2023-03-25T13:47:29.645Z,16.41
2023-03-25T13:49:56.020Z,16.41
2023-03-25T13:52:22.686Z,16.41
2023-03-25T13:54:49.142Z,16.45
2023-03-25T13:57:15.432Z,16.47
2023-03-25T13:59:41.839Z,16.50
2023-03-25T14:02:08.458Z,16.51
2023-03-25T14:04:35.321Z,16.52
2023-03-25T14:07:01.661Z,16.55
2023-03-25T14:09:28.197Z,16.57
2023-03-25T14:11:54.555Z,16.59
2023-03-25T14:14:20.920Z,16.56
2023-03-25T14:16:47.276Z,16.65
2023-03-25T14:19:13.645Z,16.73
2023-03-25T14:21:40.322Z,16.81
2023-03-25T14:24:06.584Z,16.89
2023-03-25T14:26:33.047Z,16.94
2023-03-25T14:28:59.412Z,16.98
2023-03-25T14:31:25.812Z,17.03
2023-03-25T14:33:52.577Z,17.09
2023-03-25T14:36:18.975Z,17.14
2023-03-25T14:38:45.557Z,17.17
2023-03-25T14:41:12.181Z,17.22
2023-03-25T14:43:38.745Z,17.25
2023-03-25T14:46:05.183Z,17.31
2023-03-25T14:48:31.696Z,17.34
2023-03-25T14:50:58.384Z,17.39
2023-03-25T14:53:24.750Z,17.43
2023-03-25T14:55:51.250Z,17.43
2023-03-25T14:58:17.611Z,17.46
2023-03-25T15:00:43.978Z,17.51
2023-03-25T15:03:10.273Z,17.54
2023-03-25T15:05:36.733Z,17.58
2023-03-25T15:08:03.450Z,17.61
2023-03-25T15:10:29.901Z,17.66
2023-03-25T15:12:56.594Z,17.67
2023-03-25T15:15:23.048Z,17.71
2023-03-25T15:17:49.525Z,17.74
2023-03-25T15:20:15.898Z,17.76
2023-03-25T15:22:42.274Z,17.79
2023-03-25T15:25:09.263Z,17.83
2023-03-25T15:27:35.837Z,17.85
2023-03-25T15:30:02.260Z,17.87
2023-03-25T15:32:29.355Z,17.91
2023-03-25T15:34:55.709Z,17.95
2023-03-25T15:37:22.747Z,17.97
2023-03-25T15:39:52.790Z,18.01
2023-03-25T15:42:19.320Z,18.03
2023-03-25T15:44:45.681Z,18.06
2023-03-25T15:47:13.474Z,18.08
2023-03-25T15:49:39.911Z,18.11
2023-03-25T15:52:06.590Z,18.15
2023-03-25T15:54:32.965Z,18.17
2023-03-25T15:56:59.662Z,18.16
2023-03-25T15:59:26.214Z,18.20
2023-03-25T16:01:52.696Z,18.23
2023-03-25T16:04:19.327Z,18.26
2023-03-25T16:06:46.224Z,18.28
2023-03-25T16:09:12.588Z,18.31
2023-03-25T16:11:38.981Z,18.32
2023-03-25T16:14:05.357Z,18.35
2023-03-25T16:16:31.784Z,18.39
2023-03-25T16:18:58.322Z,18.40
2023-03-25T16:21:24.605Z,18.43
2023-03-25T16:23:51.267Z,18.44
2023-03-25T16:26:18.028Z,18.45
2023-03-25T16:28:44.436Z,18.48
2023-03-25T16:31:10.804Z,18.48
2023-03-25T16:33:37.451Z,18.48
2023-03-25T16:36:04.264Z,18.51
2023-03-25T16:44:21.891Z,18.58
2023-03-25T16:46:48.239Z,18.63
2023-03-25T16:49:14.578Z,18.65
2023-03-25T16:51:40.914Z,18.59
2023-03-25T16:54:07.202Z,18.58
2023-03-25T16:56:33.664Z,18.56
2023-03-25T16:59:00.288Z,18.49
2023-03-25T17:01:27.144Z,18.45
2023-03-25T17:03:53.482Z,18.51
2023-03-25T17:06:20.147Z,18.57
2023-03-25T17:08:46.492Z,18.61
2023-03-25T17:11:12.894Z,18.69
2023-03-25T17:13:39.330Z,18.67
2023-03-25T17:16:06.050Z,18.66
2023-03-25T17:18:33.462Z,18.63
2023-03-25T17:20:59.813Z,18.60
2023-03-25T17:23:26.173Z,18.59
2023-03-25T17:25:52.511Z,18.56
2023-03-25T17:28:18.979Z,18.54
2023-03-25T17:30:45.703Z,18.52
2023-03-25T17:33:12.327Z,18.48
2023-03-25T17:35:38.707Z,18.45
2023-03-25T17:38:05.750Z,18.43
2023-03-25T17:40:32.186Z,18.40
2023-03-25T17:42:58.538Z,18.38
2023-03-25T17:45:25.234Z,18.36
2023-03-25T17:47:51.911Z,18.33
2023-03-25T17:50:18.538Z,18.30
2023-03-25T17:52:45.221Z,18.28
2023-03-25T17:55:11.576Z,18.25
2023-03-25T17:57:38.174Z,18.25
2023-03-25T18:00:04.562Z,18.22
2023-03-25T18:02:30.935Z,18.20
2023-03-25T18:04:57.646Z,18.18
2023-03-25T18:07:23.977Z,18.15
2023-03-25T18:09:50.306Z,18.14
2023-03-25T18:12:16.573Z,18.12
2023-03-25T18:14:43.265Z,18.12
2023-03-25T18:17:09.640Z,18.12
2023-03-25T18:19:36.222Z,18.08
2023-03-25T18:22:13.870Z,18.09
2023-03-25T18:24:45.567Z,18.10
2023-03-25T18:27:12.110Z,18.08
2023-03-25T18:29:38.671Z,18.07
2023-03-25T18:32:05.394Z,18.07
2023-03-25T18:34:31.784Z,18.03
2023-03-25T18:36:58.112Z,18.04
2023-03-25T18:39:25.014Z,18.02
2023-03-25T18:41:51.480Z,18.03
2023-03-25T18:44:17.951Z,18.03
2023-03-25T18:46:44.233Z,18.02
2023-03-25T18:49:10.899Z,18.03
2023-03-25T18:51:37.752Z,18.01
2023-03-25T18:54:04.190Z,18.00
2023-03-25T18:56:30.544Z,17.98
2023-03-25T18:58:56.890Z,17.99
2023-03-25T19:01:23.388Z,18.00
2023-03-25T19:03:49.881Z,17.97
2023-03-25T19:06:16.927Z,17.97
2023-03-25T19:08:43.572Z,17.97
2023-03-25T19:11:19.995Z,17.95
2023-03-25T19:13:48.616Z,17.94
2023-03-25T19:16:14.952Z,17.94
2023-03-25T19:18:41.507Z,17.93
2023-03-25T19:21:07.845Z,17.93
2023-03-25T19:23:34.457Z,17.92
2023-03-25T19:26:00.810Z,17.92
2023-03-25T19:28:27.182Z,17.91
2023-03-25T19:30:53.718Z,17.91
2023-03-25T19:33:20.444Z,17.89
2023-03-25T19:35:46.865Z,17.89
2023-03-25T19:38:13.281Z,17.86
2023-03-25T19:40:39.879Z,17.86
2023-03-25T19:43:06.703Z,17.86
2023-03-25T19:45:33.210Z,17.84
2023-03-25T19:47:59.518Z,17.83
2023-03-25T19:50:26.135Z,17.81
2023-03-25T19:52:52.450Z,17.81
2023-03-25T19:55:19.316Z,17.79
2023-03-25T19:57:45.961Z,17.78
2023-03-25T20:00:12.449Z,17.77
2023-03-25T20:02:39.580Z,17.76
2023-03-25T20:05:06.313Z,17.75
2023-03-25T20:07:32.689Z,17.75
2023-03-25T20:10:06.757Z,17.72
2023-03-25T20:12:43.314Z,17.71
2023-03-25T20:15:10.066Z,17.72
2023-03-25T20:17:36.500Z,17.68
2023-03-25T20:20:03.127Z,17.69
2023-03-25T20:22:29.788Z,17.65
2023-03-25T20:24:56.646Z,17.64
2023-03-25T20:27:23.269Z,17.64
2023-03-25T20:29:49.934Z,17.63
2023-03-25T20:32:16.708Z,17.61
2023-03-25T20:34:43.044Z,17.60
2023-03-25T20:37:09.342Z,17.57
2023-03-25T20:39:36.093Z,17.56
2023-03-25T20:42:02.821Z,17.58
2023-03-25T20:44:29.174Z,17.57
2023-03-25T20:46:55.663Z,17.55
2023-03-25T20:49:21.991Z,17.53
2023-03-25T20:51:48.500Z,17.53
2023-03-25T20:54:15.383Z,17.55
2023-03-25T20:56:41.731Z,17.55
2023-03-25T20:59:08.244Z,17.56
2023-03-25T21:01:35.049Z,17.55
2023-03-25T21:04:01.733Z,17.53
2023-03-25T21:06:28.678Z,17.50
2023-03-25T21:08:55.702Z,17.52
2023-03-25T21:11:22.929Z,17.53
2023-03-25T21:13:49.658Z,17.55
2023-03-25T21:16:15.989Z,17.51
2023-03-25T21:18:42.387Z,17.53
2023-03-25T21:21:08.851Z,17.52
2023-03-25T21:23:35.278Z,17.51
2023-03-25T21:26:01.619Z,17.50
2023-03-25T21:28:28.496Z,17.46
2023-03-25T21:30:54.821Z,17.45
2023-03-25T21:33:21.190Z,17.45
2023-03-25T21:35:53.809Z,17.44
2023-03-25T21:38:28.548Z,17.44
2023-03-25T21:40:56.099Z,17.41
2023-03-25T21:43:22.617Z,17.41
2023-03-25T21:45:49.116Z,17.39
2023-03-25T21:48:15.491Z,17.40
2023-03-25T21:50:41.907Z,17.39
2023-03-25T21:53:08.429Z,17.37
2023-03-25T21:55:34.734Z,17.36
2023-03-25T21:58:01.704Z,17.35
2023-03-25T22:00:28.241Z,17.35
2023-03-25T22:02:54.946Z,17.34
2023-03-25T22:05:21.434Z,17.31
2023-03-25T22:07:47.812Z,17.31
2023-03-25T22:10:14.170Z,17.29
2023-03-25T22:12:40.651Z,17.30
2023-03-25T22:15:07.087Z,17.30
2023-03-25T22:17:33.665Z,17.27
2023-03-25T22:20:00.068Z,17.26
2023-03-25T22:22:26.438Z,17.26
2023-03-25T22:24:53.033Z,17.25
2023-03-25T22:27:19.370Z,17.24
2023-03-25T22:29:45.849Z,17.22
2023-03-25T22:32:12.256Z,17.22
2023-03-25T22:34:38.655Z,17.22
2023-03-25T22:37:04.950Z,17.22
2023-03-25T22:39:31.695Z,17.21
2023-03-25T22:41:58.175Z,17.22
2023-03-25T22:44:24.482Z,17.21
2023-03-25T22:46:50.824Z,17.19
2023-03-25T22:49:17.174Z,17.19
2023-03-25T22:51:43.464Z,17.17
2023-03-25T22:54:09.878Z,17.19
2023-03-25T22:56:36.502Z,17.19
2023-03-25T22:59:03.459Z,17.19
2023-03-25T23:01:29.883Z,17.19
2023-03-25T23:03:56.223Z,17.18
2023-03-25T23:06:22.567Z,17.18
2023-03-25T23:08:49.307Z,17.17
2023-03-25T23:11:16.973Z,17.17
2023-03-25T23:13:44.960Z,17.16
2023-03-25T23:16:11.432Z,17.17
2023-03-25T23:18:37.882Z,17.18
2023-03-25T23:21:04.237Z,17.16
2023-03-25T23:23:31.082Z,17.16
2023-03-25T23:25:57.487Z,17.15
2023-03-25T23:28:29.959Z,17.14
2023-03-25T23:30:56.487Z,17.15
2023-03-25T23:33:23.070Z,17.14
2023-03-25T23:35:49.462Z,17.14
2023-03-25T23:38:15.900Z,17.13
2023-03-25T23:40:42.323Z,17.14
2023-03-25T23:43:08.957Z,17.11
2023-03-25T23:45:35.406Z,17.09
2023-03-25T23:48:01.866Z,17.09
2023-03-25T23:50:28.497Z,17.08
2023-03-25T23:52:55.127Z,17.10
2023-03-25T23:55:21.474Z,17.08
2023-03-25T23:57:48.059Z,17.07
